JBU407 KPIT-KEWR
Flight info
| Callsign | JBU407 |
|---|---|
| Flight time | 0h 50m |
| Altitude | 33000 |
| Route | EWC WOMBT TOSTR SLT FQM3 |
| Aircraft | A21N/M-SDE2E3FGHIRWXY/LB1 |
Departure
| Time | 2026-05-06 15:17 |
|---|---|
| Airport | Pittsburgh International Airport (KPIT) |
Arrival
| Time | 2026-05-06 16:07 |
|---|---|
| Airport | Newark Liberty International Airport (KEWR) |
| Time | Latitude | Longitude | Altitude | Speed | Heading |
|---|---|---|---|---|---|
| 2026-05-06 15:08 | 40.48756 | -80.22192 | 1157 ft | 32 kts | 89° |
| 2026-05-06 15:08 | 40.48754 | -80.21909 | 1156 ft | 12 kts | 92° |
| 2026-05-06 15:08 | 40.48751 | -80.21822 | 1155 ft | 9 kts | 92° |
| 2026-05-06 15:08 | 40.48748 | -80.21736 | 1155 ft | 9 kts | 92° |
| 2026-05-06 15:09 | 40.48721 | -80.21634 | 1155 ft | 19 kts | 133° |
| 2026-05-06 15:09 | 40.48693 | -80.21599 | 1154 ft | 0 kts | 136° |
| 2026-05-06 15:15 | 40.48692 | -80.21599 | 1154 ft | 0 kts | 136° |
| 2026-05-06 15:15 | 40.48648 | -80.21544 | 1152 ft | 13 kts | 137° |
| 2026-05-06 15:15 | 40.48586 | -80.21517 | 1152 ft | 6 kts | 227° |
| 2026-05-06 15:15 | 40.48580 | -80.21580 | 1152 ft | 0 kts | 271° |
| 2026-05-06 15:16 | 40.48581 | -80.21630 | 1152 ft | 31 kts | 271° |
| 2026-05-06 15:16 | 40.48600 | -80.22311 | 1155 ft | 119 kts | 271° |
| 2026-05-06 15:16 | 40.48636 | -80.23734 | 1360 ft | 180 kts | 275° |
| 2026-05-06 15:17 | 40.48728 | -80.25532 | 1855 ft | 217 kts | 277° |
| 2026-05-06 15:17 | 40.48860 | -80.27696 | 2420 ft | 257 kts | 279° |
| 2026-05-06 15:17 | 40.49130 | -80.30097 | 3023 ft | 263 kts | 285° |
| 2026-05-06 15:17 | 40.49735 | -80.32277 | 3514 ft | 251 kts | 300° |
| 2026-05-06 15:18 | 40.50810 | -80.34053 | 4021 ft | 250 kts | 319° |
| 2026-05-06 15:18 | 40.52339 | -80.35168 | 4534 ft | 257 kts | 340° |
| 2026-05-06 15:18 | 40.54140 | -80.35373 | 5039 ft | 268 kts | 4° |
| 2026-05-06 15:18 | 40.55924 | -80.34534 | 5544 ft | 279 kts | 26° |
| 2026-05-06 15:19 | 40.57555 | -80.33076 | 6058 ft | 287 kts | 35° |
| 2026-05-06 15:19 | 40.59034 | -80.31320 | 6548 ft | 293 kts | 46° |
| 2026-05-06 15:19 | 40.60332 | -80.29231 | 7035 ft | 298 kts | 51° |
| 2026-05-06 15:19 | 40.61597 | -80.27002 | 7533 ft | 301 kts | 52° |
| 2026-05-06 15:20 | 40.62787 | -80.24758 | 8031 ft | 305 kts | 56° |
| 2026-05-06 15:20 | 40.63962 | -80.22428 | 8535 ft | 307 kts | 55° |
| 2026-05-06 15:20 | 40.65144 | -80.20059 | 9059 ft | 312 kts | 55° |
| 2026-05-06 15:20 | 40.66346 | -80.17650 | 9574 ft | 316 kts | 56° |
| 2026-05-06 15:21 | 40.67560 | -80.15219 | 10061 ft | 320 kts | 55° |
| 2026-05-06 15:21 | 40.68793 | -80.12756 | 10538 ft | 324 kts | 54° |
| 2026-05-06 15:21 | 40.70045 | -80.10269 | 11022 ft | 328 kts | 55° |
| 2026-05-06 15:21 | 40.71310 | -80.07758 | 11542 ft | 330 kts | 55° |
| 2026-05-06 15:22 | 40.72587 | -80.05221 | 12028 ft | 334 kts | 54° |
| 2026-05-06 15:22 | 40.73875 | -80.02662 | 12544 ft | 337 kts | 54° |
| 2026-05-06 15:22 | 40.75173 | -80.00079 | 13061 ft | 340 kts | 54° |
| 2026-05-06 15:22 | 40.76488 | -79.97458 | 13592 ft | 349 kts | 54° |
| 2026-05-06 15:23 | 40.77874 | -79.94702 | 14092 ft | 372 kts | 54° |
| 2026-05-06 15:23 | 40.79348 | -79.91768 | 14556 ft | 393 kts | 54° |
| 2026-05-06 15:23 | 40.80894 | -79.88681 | 15047 ft | 413 kts | 54° |
| 2026-05-06 15:23 | 40.82510 | -79.85450 | 15539 ft | 430 kts | 54° |
| 2026-05-06 15:24 | 40.84188 | -79.82091 | 16045 ft | 445 kts | 54° |
| 2026-05-06 15:24 | 40.85912 | -79.78633 | 16544 ft | 457 kts | 55° |
| 2026-05-06 15:24 | 40.87677 | -79.75090 | 17057 ft | 466 kts | 55° |
| 2026-05-06 15:24 | 40.89468 | -79.71487 | 17594 ft | 473 kts | 55° |
| 2026-05-06 15:25 | 40.91285 | -79.67829 | 18122 ft | 479 kts | 55° |
| 2026-05-06 15:25 | 40.93124 | -79.64123 | 18592 ft | 485 kts | 54° |
| 2026-05-06 15:25 | 40.94982 | -79.60374 | 19048 ft | 490 kts | 54° |
| 2026-05-06 15:25 | 40.96860 | -79.56581 | 19529 ft | 495 kts | 54° |
| 2026-05-06 15:26 | 40.98754 | -79.52741 | 20012 ft | 501 kts | 54° |
| 2026-05-06 15:26 | 41.00671 | -79.48861 | 20514 ft | 506 kts | 54° |
| 2026-05-06 15:26 | 41.02611 | -79.44936 | 21006 ft | 512 kts | 54° |
| 2026-05-06 15:26 | 41.04569 | -79.40969 | 21489 ft | 517 kts | 54° |
| 2026-05-06 15:27 | 41.06546 | -79.36955 | 22005 ft | 522 kts | 54° |
| 2026-05-06 15:27 | 41.08535 | -79.32910 | 22553 ft | 527 kts | 54° |
| 2026-05-06 15:27 | 41.10541 | -79.28822 | 23086 ft | 530 kts | 54° |
| 2026-05-06 15:27 | 41.12557 | -79.24707 | 23580 ft | 534 kts | 54° |
| 2026-05-06 15:28 | 41.13899 | -79.21965 | 23887 ft | 536 kts | 54° |
| 2026-05-06 15:28 | 41.15930 | -79.17809 | 24346 ft | 538 kts | 54° |
| 2026-05-06 15:28 | 41.17970 | -79.13633 | 24812 ft | 541 kts | 54° |
| 2026-05-06 15:28 | 41.20020 | -79.09429 | 25284 ft | 543 kts | 53° |
| 2026-05-06 15:29 | 41.22747 | -79.03832 | 25911 ft | 546 kts | 54° |
| 2026-05-06 15:29 | 41.24812 | -78.99586 | 26442 ft | 548 kts | 53° |
| 2026-05-06 15:29 | 41.26208 | -78.96711 | 26780 ft | 549 kts | 54° |
| 2026-05-06 15:29 | 41.28284 | -78.92431 | 27290 ft | 550 kts | 54° |
| 2026-05-06 15:30 | 41.30356 | -78.88151 | 27808 ft | 551 kts | 53° |
| 2026-05-06 15:30 | 41.32402 | -78.83918 | 28324 ft | 551 kts | 54° |
| 2026-05-06 15:30 | 41.34470 | -78.79631 | 28858 ft | 551 kts | 53° |
| 2026-05-06 15:30 | 41.36539 | -78.75337 | 29408 ft | 551 kts | 53° |
| 2026-05-06 15:31 | 41.38611 | -78.71034 | 29939 ft | 552 kts | 53° |
| 2026-05-06 15:31 | 41.40708 | -78.66673 | 30378 ft | 551 kts | 53° |
| 2026-05-06 15:31 | 41.42744 | -78.62436 | 30897 ft | 550 kts | 53° |
| 2026-05-06 15:32 | 41.46854 | -78.53863 | 31900 ft | 548 kts | 52° |
| 2026-05-06 15:32 | 41.48724 | -78.49420 | 32404 ft | 552 kts | 63° |
| 2026-05-06 15:32 | 41.49997 | -78.44569 | 32747 ft | 559 kts | 76° |
| 2026-05-06 15:32 | 41.50551 | -78.39409 | 32819 ft | 567 kts | 87° |
| 2026-05-06 15:33 | 41.50810 | -78.28767 | 32806 ft | 577 kts | 90° |
| 2026-05-06 15:33 | 41.50964 | -78.18067 | 32804 ft | 577 kts | 90° |
| 2026-05-06 15:34 | 41.51128 | -78.07359 | 32796 ft | 577 kts | 90° |
| 2026-05-06 15:34 | 41.51102 | -77.96612 | 32796 ft | 573 kts | 100° |
| 2026-05-06 15:35 | 41.49807 | -77.86257 | 32795 ft | 568 kts | 105° |
| 2026-05-06 15:35 | 41.48316 | -77.75916 | 32782 ft | 567 kts | 105° |
| 2026-05-06 15:36 | 41.46829 | -77.65579 | 32778 ft | 568 kts | 105° |
| 2026-05-06 15:36 | 41.45343 | -77.55249 | 32778 ft | 567 kts | 105° |
| 2026-05-06 15:37 | 41.43855 | -77.44955 | 32778 ft | 565 kts | 105° |
| 2026-05-06 15:37 | 41.42360 | -77.34674 | 32781 ft | 565 kts | 105° |
| 2026-05-06 15:38 | 41.40856 | -77.24404 | 32790 ft | 565 kts | 105° |
| 2026-05-06 15:38 | 41.39344 | -77.14152 | 32794 ft | 563 kts | 105° |
| 2026-05-06 15:39 | 41.37829 | -77.03938 | 32805 ft | 562 kts | 105° |
| 2026-05-06 15:39 | 41.36303 | -76.93729 | 32810 ft | 562 kts | 105° |
| 2026-05-06 15:40 | 41.34769 | -76.83524 | 32781 ft | 562 kts | 105° |
| 2026-05-06 15:40 | 41.32842 | -76.73630 | 32797 ft | 552 kts | 114° |
| 2026-05-06 15:41 | 41.30284 | -76.64007 | 32799 ft | 551 kts | 115° |
| 2026-05-06 15:41 | 41.27710 | -76.54444 | 32504 ft | 544 kts | 115° |
| 2026-05-06 15:42 | 41.26443 | -76.49733 | 31968 ft | 539 kts | 115° |
| 2026-05-06 15:42 | 41.25183 | -76.45061 | 31462 ft | 535 kts | 115° |
| 2026-05-06 15:42 | 41.23932 | -76.40426 | 30979 ft | 530 kts | 115° |
| 2026-05-06 15:42 | 41.22690 | -76.35831 | 30500 ft | 528 kts | 115° |
| 2026-05-06 15:43 | 41.21456 | -76.31267 | 30024 ft | 519 kts | 115° |
| 2026-05-06 15:43 | 41.20240 | -76.26780 | 29504 ft | 515 kts | 115° |
| 2026-05-06 15:43 | 41.19028 | -76.22320 | 28965 ft | 513 kts | 115° |
| 2026-05-06 15:43 | 41.17819 | -76.17883 | 28436 ft | 507 kts | 115° |
| 2026-05-06 15:44 | 41.16632 | -76.13522 | 27883 ft | 496 kts | 115° |
| 2026-05-06 15:44 | 41.15471 | -76.09265 | 27391 ft | 486 kts | 115° |
| 2026-05-06 15:44 | 41.14329 | -76.05086 | 26880 ft | 478 kts | 115° |
| 2026-05-06 15:44 | 41.13199 | -76.00965 | 26383 ft | 473 kts | 115° |
| 2026-05-06 15:45 | 41.12074 | -75.96878 | 25880 ft | 471 kts | 115° |
| 2026-05-06 15:45 | 41.10951 | -75.92802 | 25357 ft | 470 kts | 115° |
| 2026-05-06 15:45 | 41.09831 | -75.88743 | 24890 ft | 468 kts | 115° |
| 2026-05-06 15:45 | 41.08718 | -75.84708 | 24424 ft | 464 kts | 115° |
| 2026-05-06 15:46 | 41.07612 | -75.80705 | 23966 ft | 461 kts | 115° |
| 2026-05-06 15:46 | 41.06514 | -75.76738 | 23457 ft | 456 kts | 115° |
| 2026-05-06 15:46 | 41.05433 | -75.72826 | 22802 ft | 450 kts | 116° |
| 2026-05-06 15:46 | 41.04355 | -75.68945 | 22159 ft | 448 kts | 116° |
| 2026-05-06 15:47 | 41.03284 | -75.65094 | 21523 ft | 443 kts | 116° |
| 2026-05-06 15:47 | 41.02223 | -75.61285 | 20895 ft | 438 kts | 116° |
| 2026-05-06 15:47 | 41.01174 | -75.57522 | 20283 ft | 434 kts | 117° |
| 2026-05-06 15:47 | 41.00133 | -75.53791 | 19681 ft | 429 kts | 117° |
| 2026-05-06 15:48 | 40.99105 | -75.50111 | 19085 ft | 424 kts | 117° |
| 2026-05-06 15:48 | 40.98087 | -75.46473 | 18406 ft | 418 kts | 117° |
| 2026-05-06 15:48 | 40.97098 | -75.42928 | 17648 ft | 402 kts | 118° |
| 2026-05-06 15:48 | 40.96163 | -75.39579 | 16839 ft | 386 kts | 118° |
| 2026-05-06 15:49 | 40.95248 | -75.36314 | 16094 ft | 372 kts | 118° |
| 2026-05-06 15:49 | 40.94363 | -75.33162 | 15357 ft | 359 kts | 118° |
| 2026-05-06 15:49 | 40.93503 | -75.30109 | 14638 ft | 350 kts | 119° |
| 2026-05-06 15:49 | 40.92660 | -75.27128 | 13933 ft | 343 kts | 119° |
| 2026-05-06 15:50 | 40.91834 | -75.24212 | 13189 ft | 336 kts | 120° |
| 2026-05-06 15:50 | 40.91023 | -75.21348 | 12412 ft | 330 kts | 120° |
| 2026-05-06 15:50 | 40.90224 | -75.18531 | 11642 ft | 325 kts | 120° |
| 2026-05-06 15:50 | 40.89439 | -75.15763 | 10915 ft | 319 kts | 120° |
| 2026-05-06 15:51 | 40.88668 | -75.13042 | 10197 ft | 313 kts | 120° |
| 2026-05-06 15:51 | 40.87912 | -75.10375 | 9463 ft | 307 kts | 120° |
| 2026-05-06 15:51 | 40.87171 | -75.07762 | 8683 ft | 301 kts | 120° |
| 2026-05-06 15:51 | 40.86433 | -75.05161 | 7922 ft | 304 kts | 120° |
| 2026-05-06 15:52 | 40.85690 | -75.02544 | 7304 ft | 304 kts | 120° |
| 2026-05-06 15:52 | 40.84965 | -74.99967 | 7003 ft | 294 kts | 120° |
| 2026-05-06 15:52 | 40.84263 | -74.97469 | 6944 ft | 289 kts | 120° |
| 2026-05-06 15:52 | 40.83555 | -74.94980 | 6949 ft | 290 kts | 120° |
| 2026-05-06 15:53 | 40.82852 | -74.92491 | 6945 ft | 290 kts | 119° |
| 2026-05-06 15:53 | 40.82162 | -74.89980 | 6944 ft | 290 kts | 119° |
| 2026-05-06 15:53 | 40.81478 | -74.87470 | 6848 ft | 290 kts | 119° |
| 2026-05-06 15:53 | 40.80796 | -74.84960 | 6524 ft | 291 kts | 119° |
| 2026-05-06 15:54 | 40.80323 | -74.82334 | 6171 ft | 302 kts | 100° |
| 2026-05-06 15:54 | 40.80657 | -74.79562 | 5783 ft | 312 kts | 73° |
| 2026-05-06 15:54 | 40.81679 | -74.77039 | 5404 ft | 311 kts | 60° |
| 2026-05-06 15:54 | 40.82843 | -74.74652 | 5081 ft | 306 kts | 59° |
| 2026-05-06 15:55 | 40.83997 | -74.72305 | 4987 ft | 304 kts | 59° |
| 2026-05-06 15:55 | 40.85147 | -74.69956 | 4981 ft | 304 kts | 59° |
| 2026-05-06 15:55 | 40.86267 | -74.67598 | 4976 ft | 303 kts | 62° |
| 2026-05-06 15:55 | 40.87246 | -74.65135 | 4979 ft | 303 kts | 66° |
| 2026-05-06 15:56 | 40.88213 | -74.62665 | 4978 ft | 303 kts | 63° |
| 2026-05-06 15:56 | 40.89260 | -74.60245 | 4715 ft | 302 kts | 62° |
| 2026-05-06 15:56 | 40.90290 | -74.57889 | 4345 ft | 298 kts | 62° |
| 2026-05-06 15:56 | 40.91327 | -74.55521 | 3955 ft | 290 kts | 62° |
| 2026-05-06 15:57 | 40.92331 | -74.53249 | 3581 ft | 283 kts | 61° |
| 2026-05-06 15:57 | 40.93314 | -74.51026 | 3215 ft | 278 kts | 62° |
| 2026-05-06 15:57 | 40.94157 | -74.48821 | 3022 ft | 262 kts | 75° |
| 2026-05-06 15:57 | 40.94471 | -74.46587 | 3005 ft | 236 kts | 95° |
| 2026-05-06 15:58 | 40.94227 | -74.44499 | 3003 ft | 227 kts | 110° |
| 2026-05-06 15:58 | 40.93759 | -74.42518 | 3003 ft | 225 kts | 115° |
| 2026-05-06 15:58 | 40.93230 | -74.40559 | 3002 ft | 227 kts | 117° |
| 2026-05-06 15:58 | 40.92678 | -74.38596 | 3015 ft | 228 kts | 116° |
| 2026-05-06 15:59 | 40.92121 | -74.36625 | 3021 ft | 234 kts | 117° |
| 2026-05-06 15:59 | 40.91527 | -74.34558 | 2999 ft | 245 kts | 117° |
| 2026-05-06 15:59 | 40.90922 | -74.32443 | 2995 ft | 246 kts | 118° |
| 2026-05-06 15:59 | 40.90320 | -74.30328 | 3007 ft | 246 kts | 118° |
| 2026-05-06 16:00 | 40.89709 | -74.28198 | 3002 ft | 240 kts | 118° |
| 2026-05-06 16:00 | 40.89134 | -74.26181 | 3003 ft | 231 kts | 118° |
| 2026-05-06 16:00 | 40.88575 | -74.24238 | 3006 ft | 229 kts | 118° |
| 2026-05-06 16:00 | 40.88010 | -74.22278 | 3006 ft | 228 kts | 119° |
| 2026-05-06 16:01 | 40.87446 | -74.20328 | 2976 ft | 227 kts | 119° |
| 2026-05-06 16:01 | 40.86884 | -74.18383 | 2759 ft | 227 kts | 118° |
| 2026-05-06 16:01 | 40.86319 | -74.16431 | 2536 ft | 229 kts | 118° |
| 2026-05-06 16:01 | 40.85747 | -74.14457 | 2500 ft | 230 kts | 118° |
| 2026-05-06 16:02 | 40.85177 | -74.12483 | 2494 ft | 230 kts | 118° |
| 2026-05-06 16:02 | 40.84578 | -74.10536 | 2490 ft | 226 kts | 126° |
| 2026-05-06 16:02 | 40.83513 | -74.09281 | 2480 ft | 189 kts | 169° |
| 2026-05-06 16:02 | 40.82315 | -74.09056 | 2485 ft | 165 kts | 187° |
| 2026-05-06 16:03 | 40.81263 | -74.09218 | 2460 ft | 141 kts | 195° |
| 2026-05-06 16:03 | 40.80380 | -74.09511 | 2323 ft | 124 kts | 203° |
| 2026-05-06 16:03 | 40.79575 | -74.09934 | 2141 ft | 126 kts | 206° |
| 2026-05-06 16:03 | 40.78774 | -74.10416 | 1965 ft | 128 kts | 207° |
| 2026-05-06 16:04 | 40.77963 | -74.10925 | 1805 ft | 129 kts | 209° |
| 2026-05-06 16:04 | 40.77136 | -74.11454 | 1635 ft | 136 kts | 208° |
| 2026-05-06 16:04 | 40.76274 | -74.11999 | 1450 ft | 138 kts | 208° |
| 2026-05-06 16:04 | 40.75406 | -74.12555 | 1250 ft | 139 kts | 207° |
| 2026-05-06 16:05 | 40.74532 | -74.13113 | 1067 ft | 140 kts | 206° |
| 2026-05-06 16:05 | 40.73644 | -74.13678 | 887 ft | 144 kts | 206° |
| 2026-05-06 16:05 | 40.72763 | -74.14236 | 694 ft | 137 kts | 207° |
| 2026-05-06 16:05 | 40.71924 | -74.14770 | 512 ft | 134 kts | 209° |
| 2026-05-06 16:06 | 40.71090 | -74.15304 | 334 ft | 131 kts | 207° |
| 2026-05-06 16:06 | 40.70291 | -74.15812 | 159 ft | 124 kts | 211° |
| 2026-05-06 16:06 | 40.69528 | -74.16296 | 43 ft | 118 kts | 209° |
| 2026-05-06 16:06 | 40.68871 | -74.16717 | 24 ft | 72 kts | 205° |
| 2026-05-06 16:07 | 40.68561 | -74.16953 | 25 ft | 44 kts | 230° |
| 2026-05-06 16:07 | 40.68500 | -74.17066 | 26 ft | 0 kts | 234° |
| 2026-05-06 16:08 | 40.68487 | -74.17090 | 27 ft | 7 kts | 234° |
| 2026-05-06 16:08 | 40.68446 | -74.17237 | 28 ft | 22 kts | 279° |
| 2026-05-06 16:08 | 40.68494 | -74.17381 | 27 ft | 14 kts | 296° |
| 2026-05-06 16:08 | 40.68508 | -74.17418 | 27 ft | 2 kts | 296° |
| 2026-05-06 16:09 | 40.68579 | -74.17521 | 28 ft | 21 kts | 298° |
| 2026-05-06 16:09 | 40.68673 | -74.17658 | 29 ft | 12 kts | 349° |
| 2026-05-06 16:09 | 40.68717 | -74.17662 | 28 ft | 4 kts | 356° |
| 2026-05-06 16:09 | 40.68728 | -74.17662 | 29 ft | 0 kts | 357° |